createdAt,value
2019-05-23T00:00:43.163Z,77.64
2019-05-23T00:03:15.844Z,77.91
2019-05-23T00:05:48.534Z,77.78
2019-05-23T00:08:21.747Z,78.04
2019-05-23T00:11:03.722Z,77.83
2019-05-23T00:13:42.061Z,77.85
2019-05-23T00:16:14.998Z,77.46
2019-05-23T00:18:45.495Z,77.63
2019-05-23T00:21:18.138Z,77.56
2019-05-23T00:23:50.513Z,77.70
2019-05-23T00:26:22.162Z,78.21
2019-05-23T00:29:09.134Z,78.23
2019-05-23T00:31:47.486Z,78.06
2019-05-23T00:34:18.721Z,78.58
2019-05-23T00:36:51.394Z,77.57
2019-05-23T00:39:22.977Z,77.73
2019-05-23T00:41:56.290Z,78.37
2019-05-23T00:44:27.156Z,77.86
2019-05-23T00:47:00.083Z,78.51
2019-05-23T00:49:32.592Z,78.31
2019-05-23T00:52:04.451Z,78.06
2019-05-23T00:54:35.566Z,78.47
2019-05-23T00:57:08.016Z,78.47
2019-05-23T00:59:40.092Z,78.31
2019-05-23T01:02:13.213Z,78.18
2019-05-23T01:04:45.363Z,78.29
2019-05-23T01:07:17.314Z,78.11
2019-05-23T01:09:49.405Z,78.45
2019-05-23T01:12:21.653Z,78.61
2019-05-23T01:14:53.826Z,78.28
2019-05-23T01:17:26.317Z,77.99
2019-05-23T01:19:58.384Z,78.09
2019-05-23T01:22:29.587Z,78.31
2019-05-23T01:25:03.333Z,78.55
2019-05-23T01:27:35.023Z,78.66
2019-05-23T01:30:09.345Z,78.34
2019-05-23T01:32:42.771Z,77.90
2019-05-23T01:35:15.947Z,78.10
2019-05-23T01:37:47.755Z,77.77
2019-05-23T01:40:20.424Z,77.78
2019-05-23T01:42:51.977Z,77.98
2019-05-23T01:45:26.551Z,77.97
2019-05-23T01:47:59.382Z,77.92
2019-05-23T01:50:31.458Z,78.00
2019-05-23T01:53:03.351Z,78.38
2019-05-23T01:55:35.392Z,78.02
2019-05-23T01:58:10.107Z,78.35
2019-05-23T02:00:40.935Z,78.52
2019-05-23T02:03:11.443Z,78.72
2019-05-23T02:05:43.134Z,78.78
2019-05-23T02:08:15.149Z,78.80
2019-05-23T02:10:47.053Z,79.19
2019-05-23T02:13:18.703Z,79.21
2019-05-23T02:15:50.085Z,79.56
2019-05-23T02:18:20.879Z,79.06
2019-05-23T02:20:55.209Z,79.26
2019-05-23T02:23:26.476Z,79.20
2019-05-23T02:25:58.306Z,79.33
2019-05-23T02:28:30.217Z,79.73
2019-05-23T02:31:02.355Z,79.61
2019-05-23T02:33:33.539Z,80.30
2019-05-23T02:36:05.061Z,80.11
2019-05-23T02:38:53.621Z,80.10
2019-05-23T02:41:42.151Z,80.05
2019-05-23T02:44:16.818Z,79.44
2019-05-23T02:47:04.852Z,79.66
2019-05-23T02:49:37.495Z,80.26
2019-05-23T02:52:35.264Z,79.29
2019-05-23T02:55:12.555Z,79.87
2019-05-23T02:57:47.086Z,80.49
2019-05-23T03:00:52.688Z,80.23
2019-05-23T03:03:09.633Z,80.44
2019-05-23T03:05:41.484Z,80.69
2019-05-23T03:08:14.211Z,80.14
2019-05-23T03:11:04.834Z,80.45
2019-05-23T03:13:40.464Z,80.02
2019-05-23T03:16:15.651Z,80.36
2019-05-23T03:18:50.762Z,80.51
2019-05-23T03:21:22.077Z,80.90
2019-05-23T03:23:53.689Z,80.48
2019-05-23T03:26:40.127Z,80.52
2019-05-23T03:29:12.524Z,81.21
2019-05-23T03:31:45.484Z,81.61
2019-05-23T03:34:17.950Z,81.95
2019-05-23T03:36:51.170Z,82.19
2019-05-23T03:39:22.393Z,82.08
2019-05-23T03:41:54.928Z,82.00
2019-05-23T03:44:26.993Z,82.13
2019-05-23T03:46:59.930Z,82.20
2019-05-23T03:49:31.535Z,82.11
2019-05-23T03:52:05.018Z,81.99
2019-05-23T03:54:37.368Z,82.06
2019-05-23T03:57:09.385Z,82.22
2019-05-23T03:59:41.171Z,81.92
2019-05-23T04:02:13.871Z,82.55
2019-05-23T04:04:46.187Z,82.50
2019-05-23T04:07:17.695Z,82.83
2019-05-23T04:09:49.048Z,82.86
2019-05-23T04:12:19.673Z,82.65
2019-05-23T04:14:50.995Z,82.78
2019-05-23T04:17:22.375Z,83.15
2019-05-23T04:19:53.726Z,83.04
2019-05-23T04:22:25.380Z,83.13
2019-05-23T04:25:01.934Z,83.04
2019-05-23T04:27:31.358Z,83.10
2019-05-23T04:30:02.410Z,83.09
2019-05-23T04:32:33.647Z,83.19
2019-05-23T04:35:06.502Z,83.48
2019-05-23T04:37:37.439Z,83.28
2019-05-23T04:40:10.530Z,83.14
2019-05-23T04:42:43.145Z,83.21
2019-05-23T04:45:14.267Z,82.93
2019-05-23T04:47:44.760Z,82.79
2019-05-23T04:50:17.048Z,82.55
2019-05-23T04:52:48.177Z,81.92
2019-05-23T04:55:22.990Z,80.85
2019-05-23T04:57:54.308Z,80.01
2019-05-23T05:00:26.421Z,79.15
2019-05-23T05:02:57.392Z,78.64
2019-05-23T05:05:28.338Z,78.36
2019-05-23T05:07:59.574Z,77.81
2019-05-23T05:10:30.854Z,76.70
2019-05-23T05:13:02.714Z,77.50
2019-05-23T05:15:34.034Z,77.28
2019-05-23T05:18:06.748Z,76.12
2019-05-23T05:20:37.450Z,76.98
2019-05-23T05:23:08.480Z,76.07
2019-05-23T05:25:39.602Z,75.51
2019-05-23T05:28:12.130Z,76.17
2019-05-23T05:30:43.258Z,76.03
2019-05-23T05:33:14.304Z,75.24
2019-05-23T05:35:45.218Z,74.92
2019-05-23T05:38:19.877Z,74.73
2019-05-23T05:40:50.994Z,74.53
2019-05-23T05:43:23.034Z,74.24
2019-05-23T05:45:53.783Z,74.74
2019-05-23T05:48:24.882Z,74.52
2019-05-23T05:50:55.544Z,73.00
2019-05-23T05:53:26.538Z,74.03
2019-05-23T05:55:57.648Z,73.81
2019-05-23T05:58:28.497Z,74.04
2019-05-23T06:01:00.968Z,73.70
2019-05-23T06:03:34.442Z,73.33
2019-05-23T06:06:15.878Z,73.04
2019-05-23T06:08:48.464Z,72.66
2019-05-23T06:11:19.763Z,73.05
2019-05-23T06:13:50.302Z,71.90
2019-05-23T06:16:21.437Z,71.72
2019-05-23T06:18:52.818Z,71.73
2019-05-23T06:21:25.368Z,72.73
2019-05-23T06:23:56.821Z,70.62
2019-05-23T06:26:27.728Z,72.18
2019-05-23T06:28:58.624Z,72.21
2019-05-23T06:31:30.051Z,71.72
2019-05-23T06:34:00.876Z,71.15
2019-05-23T06:36:31.914Z,71.96
2019-05-23T06:39:05.923Z,71.57
2019-05-23T06:41:36.976Z,71.99
2019-05-23T06:44:12.955Z,71.96
2019-05-23T06:46:43.877Z,72.06
2019-05-23T06:49:14.825Z,71.94
2019-05-23T06:51:45.731Z,70.96
2019-05-23T06:54:16.916Z,70.55
2019-05-23T06:56:48.391Z,71.54
2019-05-23T06:59:20.019Z,71.23
2019-05-23T07:01:51.152Z,71.00
2019-05-23T07:04:22.292Z,70.62
2019-05-23T07:06:53.262Z,71.58
2019-05-23T07:09:24.259Z,70.92
2019-05-23T07:11:58.552Z,71.02
2019-05-23T07:14:31.198Z,70.95
2019-05-23T07:17:02.114Z,69.65
2019-05-23T07:19:33.364Z,68.78
2019-05-23T07:22:04.285Z,68.82
2019-05-23T07:24:35.444Z,68.90
2019-05-23T07:27:06.563Z,67.31
2019-05-23T07:29:37.408Z,67.36
2019-05-23T07:32:09.157Z,69.36
2019-05-23T07:34:40.428Z,69.29
2019-05-23T07:37:11.046Z,68.94
2019-05-23T07:39:42.041Z,67.79
2019-05-23T07:42:12.662Z,66.94
2019-05-23T07:44:48.361Z,67.11
2019-05-23T07:47:17.253Z,67.49
2019-05-23T07:49:48.707Z,63.21
2019-05-23T07:52:19.592Z,63.85
2019-05-23T07:54:51.974Z,64.64
2019-05-23T07:57:23.888Z,64.91
2019-05-23T07:59:55.425Z,65.06
2019-05-23T08:02:30.064Z,64.55
2019-05-23T08:05:01.009Z,65.48
2019-05-23T08:07:32.939Z,66.13
2019-05-23T08:10:08.685Z,65.45
2019-05-23T08:12:40.550Z,64.96
2019-05-23T08:15:11.483Z,65.06
2019-05-23T08:17:43.199Z,64.99
2019-05-23T08:20:14.745Z,64.86
2019-05-23T08:22:46.698Z,65.24
2019-05-23T08:25:18.073Z,65.71
2019-05-23T08:27:49.072Z,64.56
2019-05-23T08:30:20.753Z,64.86
2019-05-23T08:32:51.602Z,62.98
2019-05-23T08:35:22.732Z,63.45
2019-05-23T08:37:55.278Z,63.42
2019-05-23T08:40:27.287Z,64.00
2019-05-23T08:42:58.108Z,62.92
2019-05-23T08:45:29.126Z,62.19
2019-05-23T08:47:59.980Z,61.40
2019-05-23T08:50:31.328Z,62.77
2019-05-23T08:53:02.370Z,61.54
2019-05-23T08:55:33.622Z,60.53
2019-05-23T08:58:04.628Z,60.76
2019-05-23T09:00:39.542Z,61.03
2019-05-23T09:03:11.546Z,59.02
2019-05-23T09:05:42.914Z,58.83
2019-05-23T09:08:16.924Z,58.52
2019-05-23T09:10:48.246Z,59.16
2019-05-23T09:13:19.342Z,57.47
2019-05-23T09:15:52.840Z,58.21
2019-05-23T09:18:23.711Z,57.98
2019-05-23T09:20:54.586Z,57.91
2019-05-23T09:23:26.429Z,56.35
2019-05-23T09:25:57.273Z,54.14
2019-05-23T09:28:28.253Z,53.72
2019-05-23T09:30:59.627Z,53.46
2019-05-23T09:33:31.023Z,53.61
2019-05-23T09:36:02.121Z,54.56
2019-05-23T09:38:33.199Z,53.95
2019-05-23T09:41:07.288Z,53.78
2019-05-23T09:43:38.197Z,53.90
2019-05-23T09:46:08.989Z,52.40
2019-05-23T09:48:39.952Z,49.18
2019-05-23T09:51:10.994Z,50.40
2019-05-23T09:53:47.001Z,51.74
2019-05-23T09:56:14.245Z,52.20
2019-05-23T09:58:45.117Z,54.10
2019-05-23T10:01:17.261Z,54.19
2019-05-23T10:03:48.117Z,53.49
2019-05-23T10:06:19.282Z,53.72
2019-05-23T10:08:50.200Z,53.18
2019-05-23T10:11:21.206Z,53.95
2019-05-23T10:13:52.094Z,52.81
2019-05-23T10:16:24.699Z,53.10
2019-05-23T10:18:55.369Z,53.90
2019-05-23T10:21:26.119Z,51.45
2019-05-23T10:23:57.004Z,50.49
2019-05-23T10:26:28.349Z,51.84
2019-05-23T10:28:59.139Z,52.63
2019-05-23T10:31:30.072Z,52.62
2019-05-23T10:34:00.927Z,52.63
2019-05-23T10:36:31.783Z,52.78
2019-05-23T10:39:02.795Z,53.93
2019-05-23T10:41:33.727Z,52.48
2019-05-23T10:44:07.335Z,53.48
2019-05-23T10:46:38.799Z,52.18
2019-05-23T10:49:09.737Z,51.76
2019-05-23T10:51:40.549Z,50.93
2019-05-23T10:54:12.118Z,51.28
2019-05-23T10:56:42.958Z,50.83
2019-05-23T10:59:13.958Z,50.54
2019-05-23T11:01:45.615Z,51.43
2019-05-23T11:04:16.797Z,51.82
2019-05-23T11:06:47.939Z,52.42
2019-05-23T11:09:36.218Z,52.27
2019-05-23T11:11:52.112Z,51.81
2019-05-23T11:14:23.029Z,51.22
2019-05-23T11:16:54.681Z,52.35
2019-05-23T11:19:25.178Z,51.95
2019-05-23T11:21:56.235Z,51.67
2019-05-23T11:24:27.484Z,50.70
2019-05-23T11:26:58.333Z,50.57
2019-05-23T11:29:30.823Z,51.37
2019-05-23T11:32:02.150Z,51.74
2019-05-23T11:34:33.235Z,52.93
2019-05-23T11:37:04.073Z,52.78
2019-05-23T11:39:42.074Z,50.97
2019-05-23T11:42:07.572Z,52.26
2019-05-23T11:44:38.694Z,51.99
2019-05-23T11:47:10.058Z,51.31
2019-05-23T11:49:41.566Z,51.16
2019-05-23T11:52:14.254Z,51.77
2019-05-23T11:54:46.412Z,50.05
2019-05-23T11:57:17.242Z,50.30
2019-05-23T11:59:48.019Z,51.05
2019-05-23T12:02:24.058Z,49.70
2019-05-23T12:08:04.134Z,50.39
2019-05-23T12:10:35.098Z,49.85
2019-05-23T12:13:05.779Z,49.82
2019-05-23T12:15:39.642Z,49.62
2019-05-23T12:18:10.739Z,50.17
2019-05-23T12:20:41.627Z,49.98
2019-05-23T12:23:12.522Z,50.44
2019-05-23T12:25:43.542Z,50.47
2019-05-23T12:28:18.172Z,50.11
2019-05-23T12:30:49.355Z,50.17
2019-05-23T12:33:20.351Z,50.91
2019-05-23T12:35:51.321Z,49.88
2019-05-23T12:38:22.155Z,51.37
2019-05-23T12:40:53.283Z,51.25
2019-05-23T12:43:24.259Z,49.61
2019-05-23T12:45:58.120Z,50.56
2019-05-23T12:48:36.262Z,50.71
2019-05-23T12:51:09.852Z,50.40
2019-05-23T12:53:42.428Z,50.53
2019-05-23T12:56:14.687Z,50.15
2019-05-23T12:58:46.686Z,50.27
2019-05-23T13:01:19.048Z,50.72
2019-05-23T13:03:49.648Z,51.19
2019-05-23T13:06:23.438Z,50.63
2019-05-23T13:08:54.452Z,50.04
2019-05-23T13:11:25.485Z,49.67
2019-05-23T13:13:56.618Z,48.56
2019-05-23T13:16:28.057Z,49.55
2019-05-23T13:18:58.621Z,49.48
2019-05-23T13:21:29.478Z,48.27
2019-05-23T13:24:00.438Z,47.92
2019-05-23T13:26:31.673Z,48.89
2019-05-23T13:29:02.569Z,48.83
2019-05-23T13:31:33.139Z,49.04
2019-05-23T13:34:04.058Z,48.46
2019-05-23T13:36:34.861Z,48.56
2019-05-23T13:39:09.036Z,49.05
2019-05-23T13:41:40.430Z,49.15
2019-05-23T13:44:29.699Z,48.57
2019-05-23T13:46:43.600Z,48.58
2019-05-23T13:49:14.465Z,48.37
2019-05-23T13:51:45.427Z,48.62
2019-05-23T13:54:16.370Z,48.83
2019-05-23T13:56:48.153Z,48.70
2019-05-23T13:59:19.149Z,48.71
2019-05-23T14:01:50.256Z,49.43
2019-05-23T14:04:21.545Z,47.95
2019-05-23T14:06:55.486Z,48.74
2019-05-23T14:09:28.016Z,48.90
2019-05-23T14:12:20.215Z,49.24
2019-05-23T14:14:31.244Z,47.91
2019-05-23T14:17:19.947Z,47.45
2019-05-23T14:19:51.583Z,47.62
2019-05-23T14:22:22.983Z,47.56
2019-05-23T14:24:53.508Z,48.07
2019-05-23T14:27:42.617Z,47.91
2019-05-23T14:30:24.370Z,48.18
2019-05-23T14:32:56.576Z,48.67
2019-05-23T14:35:33.546Z,49.18
2019-05-23T14:38:06.589Z,48.78
2019-05-23T14:40:37.842Z,47.70
2019-05-23T14:43:16.518Z,47.86
2019-05-23T14:45:52.141Z,48.08
2019-05-23T14:48:30.655Z,47.60
2019-05-23T14:51:09.592Z,48.49
2019-05-23T14:53:45.136Z,48.94
2019-05-23T14:56:17.299Z,47.63
2019-05-23T14:58:49.702Z,47.30
2019-05-23T15:01:21.758Z,47.79
2019-05-23T15:03:53.227Z,48.53
2019-05-23T15:06:24.367Z,47.88
2019-05-23T15:08:55.278Z,47.29
2019-05-23T15:11:26.114Z,47.62
2019-05-23T15:13:56.868Z,47.25
2019-05-23T15:16:27.884Z,47.00
2019-05-23T15:18:58.921Z,46.10
2019-05-23T15:21:29.782Z,46.64
2019-05-23T15:24:00.333Z,47.29
2019-05-23T15:26:31.228Z,47.58
2019-05-23T15:29:02.244Z,47.21
2019-05-23T15:31:33.314Z,47.15
2019-05-23T15:34:06.996Z,44.91
2019-05-23T15:36:37.386Z,45.91
2019-05-23T15:39:10.479Z,45.22
2019-05-23T15:41:42.110Z,46.65
2019-05-23T15:44:25.116Z,45.05
2019-05-23T15:46:46.736Z,45.45
2019-05-23T15:49:17.664Z,44.43
2019-05-23T15:51:53.770Z,45.99
2019-05-23T15:54:24.007Z,46.05
2019-05-23T15:56:56.854Z,45.12
2019-05-23T15:59:45.823Z,44.83
2019-05-23T16:02:24.216Z,45.21
2019-05-23T16:04:56.808Z,46.19
2019-05-23T16:07:28.458Z,46.68
2019-05-23T16:09:59.281Z,45.71
2019-05-23T16:12:30.115Z,45.50
2019-05-23T16:15:01.756Z,46.22
2019-05-23T16:17:32.703Z,46.57
2019-05-23T16:20:03.357Z,46.10
2019-05-23T16:22:34.300Z,47.11
2019-05-23T16:25:06.668Z,47.82
2019-05-23T16:27:40.555Z,45.61
2019-05-23T16:30:12.438Z,46.01
2019-05-23T16:32:46.465Z,45.93
2019-05-23T16:35:18.340Z,48.03
2019-05-23T16:37:49.447Z,48.87
2019-05-23T16:40:20.145Z,48.32
2019-05-23T16:42:52.575Z,48.96
2019-05-23T16:45:23.632Z,47.06
2019-05-23T16:47:54.532Z,46.64
2019-05-23T16:50:25.744Z,45.04
2019-05-23T16:52:56.821Z,44.27
2019-05-23T16:55:29.423Z,43.76
2019-05-23T16:58:14.030Z,43.48
2019-05-23T17:00:52.943Z,45.00
2019-05-23T17:03:40.876Z,44.42
2019-05-23T17:06:13.183Z,44.75
2019-05-23T17:08:55.298Z,44.48
2019-05-23T17:11:36.523Z,46.09
2019-05-23T17:14:21.171Z,45.71
2019-05-23T17:17:10.194Z,46.38
2019-05-23T17:19:42.757Z,46.63
2019-05-23T17:22:18.214Z,46.57
2019-05-23T17:24:50.862Z,45.64
2019-05-23T17:27:38.454Z,47.10
2019-05-23T17:30:14.294Z,47.80
2019-05-23T17:32:44.980Z,47.69
2019-05-23T17:35:19.088Z,47.58
2019-05-23T17:37:50.061Z,48.85
2019-05-23T17:40:24.916Z,48.49
2019-05-23T17:42:53.618Z,47.98
2019-05-23T17:45:25.145Z,48.87
2019-05-23T17:47:56.071Z,50.58
2019-05-23T17:50:27.763Z,50.82
2019-05-23T17:52:58.409Z,48.73
2019-05-23T17:55:30.899Z,49.92
2019-05-23T17:58:01.998Z,49.13
2019-05-23T18:00:37.397Z,49.48
2019-05-23T18:03:09.843Z,49.10
2019-05-23T18:05:40.745Z,49.68
2019-05-23T18:08:13.386Z,49.63
2019-05-23T18:10:46.136Z,49.50
2019-05-23T18:13:17.035Z,49.54
2019-05-23T18:15:48.398Z,50.80
2019-05-23T18:18:19.620Z,50.80
2019-05-23T18:20:51.664Z,50.44
2019-05-23T18:23:24.572Z,49.56
2019-05-23T18:25:56.452Z,50.26
2019-05-23T18:28:31.275Z,50.97
2019-05-23T18:31:08.173Z,49.93
2019-05-23T18:33:37.418Z,50.90
2019-05-23T18:36:09.654Z,50.71
2019-05-23T18:38:41.214Z,51.05
2019-05-23T18:41:12.412Z,51.66
2019-05-23T18:43:43.773Z,50.68
2019-05-23T18:46:16.046Z,50.35
2019-05-23T18:48:47.659Z,52.08
2019-05-23T18:51:18.770Z,52.02
2019-05-23T18:53:49.829Z,53.12
2019-05-23T18:56:20.769Z,53.92
2019-05-23T18:58:52.266Z,53.85
2019-05-23T19:01:25.165Z,53.90
2019-05-23T19:03:56.504Z,54.40
2019-05-23T19:06:27.425Z,53.95
2019-05-23T19:08:58.636Z,53.92
2019-05-23T19:11:29.671Z,54.50
2019-05-23T19:14:00.202Z,54.65
2019-05-23T19:16:32.044Z,53.16
2019-05-23T19:19:04.290Z,55.21
2019-05-23T19:21:35.541Z,54.72
2019-05-23T19:24:08.615Z,54.78
2019-05-23T19:26:40.510Z,53.75
2019-05-23T19:29:12.187Z,53.78
2019-05-23T19:31:42.753Z,54.24
2019-05-23T19:34:13.282Z,54.71
2019-05-23T19:36:44.395Z,54.99
2019-05-23T19:39:15.408Z,54.96
2019-05-23T19:41:46.365Z,55.81
2019-05-23T19:44:17.291Z,54.72
2019-05-23T19:46:49.683Z,55.38
2019-05-23T19:49:20.570Z,55.13
2019-05-23T19:51:51.526Z,55.42
2019-05-23T19:54:23.708Z,56.53
2019-05-23T19:56:54.719Z,57.18
2019-05-23T19:59:25.704Z,57.24
2019-05-23T20:01:58.762Z,57.53
2019-05-23T20:04:31.481Z,57.72
2019-05-23T20:07:03.094Z,57.83
2019-05-23T20:09:34.007Z,58.06
2019-05-23T20:12:05.791Z,57.92
2019-05-23T20:14:36.728Z,58.32
2019-05-23T20:17:07.640Z,58.68
2019-05-23T20:19:41.270Z,57.93
2019-05-23T20:22:12.528Z,57.45
2019-05-23T20:24:43.532Z,58.02
2019-05-23T20:27:14.508Z,58.39
2019-05-23T20:29:45.360Z,58.27
2019-05-23T20:32:16.494Z,57.72
2019-05-23T20:34:47.438Z,58.15
2019-05-23T20:37:21.357Z,58.22
2019-05-23T20:39:52.406Z,58.18
2019-05-23T20:42:23.466Z,58.63
2019-05-23T20:44:54.582Z,58.82
2019-05-23T20:47:26.218Z,58.75
2019-05-23T20:49:57.155Z,59.70
2019-05-23T20:52:30.140Z,60.28
2019-05-23T20:55:00.690Z,60.04
2019-05-23T20:57:34.431Z,60.13
2019-05-23T21:00:08.582Z,60.19
2019-05-23T21:02:40.159Z,60.44
2019-05-23T21:05:11.162Z,60.06
2019-05-23T21:07:42.051Z,60.56
2019-05-23T21:10:16.023Z,61.08
2019-05-23T21:12:46.827Z,60.60
2019-05-23T21:15:17.906Z,60.17
2019-05-23T21:17:48.453Z,59.84
2019-05-23T21:20:19.543Z,59.54
2019-05-23T21:22:50.440Z,60.01
2019-05-23T21:25:21.353Z,59.77
2019-05-23T21:27:52.301Z,59.89
2019-05-23T21:30:23.698Z,59.93
2019-05-23T21:32:58.821Z,61.24
2019-05-23T21:35:30.350Z,61.51
2019-05-23T21:38:01.264Z,61.77
2019-05-23T21:40:38.219Z,61.91
2019-05-23T21:43:09.204Z,62.02
2019-05-23T21:45:40.290Z,61.82
2019-05-23T21:48:11.438Z,62.07
2019-05-23T21:50:42.372Z,61.65
2019-05-23T21:53:13.031Z,61.85
2019-05-23T21:55:44.825Z,61.81
2019-05-23T21:58:16.598Z,62.00
2019-05-23T22:01:07.203Z,61.62
2019-05-23T22:03:43.161Z,61.95
2019-05-23T22:06:16.255Z,62.40
2019-05-23T22:08:47.117Z,62.63
2019-05-23T22:11:20.366Z,63.00
2019-05-23T22:13:52.306Z,62.69
2019-05-23T22:16:23.593Z,62.75
2019-05-23T22:18:54.415Z,62.68
2019-05-23T22:21:25.357Z,62.40
2019-05-23T22:23:56.585Z,62.82
2019-05-23T22:26:31.316Z,62.76
2019-05-23T22:29:02.419Z,62.38
2019-05-23T22:31:35.018Z,63.16
2019-05-23T22:34:12.320Z,64.02
2019-05-23T22:36:44.783Z,63.67
2019-05-23T22:39:16.069Z,63.37
2019-05-23T22:41:49.938Z,63.62
2019-05-23T22:44:20.591Z,64.24
2019-05-23T22:46:51.125Z,64.98
2019-05-23T22:49:22.080Z,64.49
2019-05-23T22:51:54.660Z,64.61
2019-05-23T22:54:25.586Z,64.67
2019-05-23T22:56:56.670Z,64.85
2019-05-23T22:59:30.058Z,64.64
2019-05-23T23:02:01.324Z,64.45
2019-05-23T23:04:32.665Z,64.57
2019-05-23T23:07:03.737Z,64.50
2019-05-23T23:09:37.618Z,64.93
2019-05-23T23:12:08.838Z,65.01
2019-05-23T23:14:39.376Z,65.27
2019-05-23T23:17:10.487Z,65.01
2019-05-23T23:19:44.227Z,64.99
2019-05-23T23:22:17.478Z,65.42
2019-05-23T23:24:48.094Z,65.85
2019-05-23T23:27:18.989Z,65.67
2019-05-23T23:29:49.687Z,65.05
2019-05-23T23:32:21.863Z,65.38
2019-05-23T23:34:55.953Z,66.38
2019-05-23T23:37:26.940Z,66.58
2019-05-23T23:40:00.555Z,66.35
2019-05-23T23:42:31.850Z,66.12
2019-05-23T23:45:21.006Z,66.46
2019-05-23T23:48:09.613Z,66.26
2019-05-23T23:50:58.713Z,66.24
2019-05-23T23:53:47.856Z,66.36
2019-05-23T23:56:36.680Z,66.16
2019-05-23T23:59:08.457Z,66.29
